createdAt,value
2022-09-17T00:29:24.667Z,1003.57
2022-09-17T00:30:05.034Z,1003.53
2022-09-17T00:30:45.619Z,1003.53
2022-09-17T00:31:26.172Z,1003.61
2022-09-17T00:32:06.663Z,1003.61
2022-09-17T00:32:47.126Z,1003.56
2022-09-17T00:36:16.176Z,1003.57
2022-09-17T00:36:56.459Z,1003.52
2022-09-17T00:37:36.949Z,1003.57
2022-09-17T00:38:17.371Z,1003.56
2022-09-17T00:38:57.906Z,1003.55
2022-09-17T00:39:38.345Z,1003.5
2022-09-17T00:40:19.027Z,1003.48
2022-09-17T00:40:59.505Z,1003.47
2022-09-17T00:41:39.984Z,1003.44
2022-09-17T00:42:20.507Z,1003.49
2022-09-17T00:43:01.016Z,1003.51
2022-09-17T00:43:41.463Z,1003.48
2022-09-17T00:44:21.939Z,1003.54
2022-09-17T00:45:02.563Z,1003.52
2022-09-17T00:45:42.897Z,1003.55
2022-09-17T00:46:23.405Z,1003.53
2022-09-17T00:47:03.838Z,1003.54
2022-09-17T00:47:44.364Z,1003.52
2022-09-17T00:48:24.789Z,1003.6
2022-09-17T00:49:05.279Z,1003.61
2022-09-17T00:49:45.788Z,1003.56
2022-09-17T00:50:26.249Z,1003.58
2022-09-17T00:51:06.753Z,1003.52
2022-09-17T00:51:47.254Z,1003.57
2022-09-17T00:52:27.726Z,1003.57
2022-09-17T00:53:48.652Z,1003.57
2022-09-17T00:54:29.118Z,1003.56
2022-09-17T00:55:09.603Z,1003.59
2022-09-17T00:55:50.104Z,1003.64
2022-09-17T00:56:30.661Z,1003.57
2022-09-17T00:57:11.784Z,1003.6
2022-09-17T00:57:52.221Z,1003.58
2022-09-17T00:58:32.711Z,1003.53
2022-09-17T00:59:13.207Z,1003.49
2022-09-17T00:59:53.679Z,1003.5
2022-09-17T01:00:34.283Z,1003.56
2022-09-17T01:01:15.369Z,1003.53
2022-09-17T01:01:55.844Z,1003.62
2022-09-17T01:02:36.278Z,1003.57
2022-09-17T01:03:57.275Z,1003.53
2022-09-17T01:04:37.800Z,1003.47
2022-09-17T01:05:18.311Z,1003.51
2022-09-17T01:05:58.824Z,1003.55
2022-09-17T01:06:39.293Z,1003.54
2022-09-17T01:07:19.803Z,1003.5
2022-09-17T01:08:00.299Z,1003.45
2022-09-17T01:08:40.833Z,1003.49
2022-09-17T01:09:21.264Z,1003.5
2022-09-17T01:10:01.782Z,1003.54
2022-09-17T01:10:42.271Z,1003.55
2022-09-17T01:11:22.765Z,1003.51
2022-09-17T01:12:03.260Z,1003.52
2022-09-17T01:12:43.739Z,1003.56
2022-09-17T01:13:24.197Z,1003.55
2022-09-17T01:14:04.668Z,1003.55
2022-09-17T01:14:45.149Z,1003.5
2022-09-17T01:15:25.647Z,1003.57
2022-09-17T01:16:06.296Z,1003.47
2022-09-17T01:16:46.606Z,1003.58
2022-09-17T01:17:27.105Z,1003.6
2022-09-17T01:18:07.556Z,1003.53
2022-09-17T01:18:48.058Z,1003.57
2022-09-17T01:19:28.571Z,1003.53
2022-09-17T01:20:09.037Z,1003.51
2022-09-17T01:20:49.501Z,1003.54
2022-09-17T01:21:30.012Z,1003.53
2022-09-17T01:22:10.454Z,1003.56
2022-09-17T01:22:50.945Z,1003.54
2022-09-17T01:23:31.422Z,1003.54
2022-09-17T01:24:11.887Z,1003.57
2022-09-17T01:24:52.376Z,1003.55
2022-09-17T01:25:32.820Z,1003.57
2022-09-17T01:26:13.299Z,1003.57
2022-09-17T01:26:53.759Z,1003.54
2022-09-17T01:27:34.826Z,1003.61
2022-09-17T01:28:15.295Z,1003.6
2022-09-17T01:28:55.775Z,1003.62
2022-09-17T01:29:36.263Z,1003.62
2022-09-17T01:30:16.766Z,1003.63
2022-09-17T01:30:57.300Z,1003.58
2022-09-17T01:31:37.888Z,1003.58
2022-09-17T01:32:18.241Z,1003.51
2022-09-17T01:32:58.734Z,1003.62
2022-09-17T01:33:39.214Z,1003.63
2022-09-17T01:34:19.713Z,1003.59
2022-09-17T01:35:00.220Z,1003.58
2022-09-17T01:35:40.703Z,1003.57
2022-09-17T01:36:21.172Z,1003.63
2022-09-17T01:37:01.663Z,1003.63
2022-09-17T01:37:42.202Z,1003.68
2022-09-17T01:38:22.673Z,1003.67
2022-09-17T01:39:03.195Z,1003.67
2022-09-17T01:39:43.651Z,1003.67
2022-09-17T01:40:24.158Z,1003.67
2022-09-17T01:41:04.629Z,1003.67
2022-09-17T01:41:45.094Z,1003.7
2022-09-17T01:42:25.572Z,1003.69
2022-09-17T01:43:06.018Z,1003.67
2022-09-17T01:43:46.483Z,1003.69
2022-09-17T01:44:27.032Z,1003.66
2022-09-17T01:45:07.492Z,1003.79
2022-09-17T01:46:28.549Z,1003.67
2022-09-17T01:47:09.051Z,1003.73
2022-09-17T01:47:49.408Z,1003.76
2022-09-17T01:48:29.911Z,1003.74
2022-09-17T01:49:11.150Z,1003.78
2022-09-17T01:49:51.633Z,1003.79
2022-09-17T01:50:32.094Z,1003.81
2022-09-17T01:51:12.572Z,1003.79
2022-09-17T01:51:53.045Z,1003.81
2022-09-17T01:52:33.512Z,1003.79
2022-09-17T01:53:14.003Z,1003.77
2022-09-17T01:53:54.489Z,1003.85
2022-09-17T01:54:37.121Z,1003.85
2022-09-17T01:55:15.453Z,1003.84
2022-09-17T01:56:36.416Z,1003.77
2022-09-17T01:57:16.912Z,1003.82
2022-09-17T01:57:57.426Z,1003.83
2022-09-17T01:58:37.941Z,1003.79
2022-09-17T01:59:18.429Z,1003.87
2022-09-17T01:59:59.016Z,1003.85
2022-09-17T02:00:39.422Z,1003.86
2022-09-17T02:01:20.536Z,1003.88
2022-09-17T02:02:01.094Z,1003.87
2022-09-17T02:02:41.589Z,1003.89
2022-09-17T02:03:21.956Z,1003.89
2022-09-17T02:04:02.417Z,1003.84
2022-09-17T02:04:42.869Z,1003.9
2022-09-17T02:05:23.331Z,1003.9
2022-09-17T02:06:03.857Z,1003.9
2022-09-17T02:06:44.312Z,1003.93
2022-09-17T02:07:24.823Z,1003.93
2022-09-17T02:08:05.301Z,1003.94
2022-09-17T02:09:26.268Z,1003.9
2022-09-17T02:10:06.757Z,1003.93
2022-09-17T02:10:47.256Z,1003.92
2022-09-17T02:11:27.731Z,1003.9
2022-09-17T02:12:08.206Z,1003.95
2022-09-17T02:12:48.771Z,1003.96
2022-09-17T02:13:29.201Z,1004
2022-09-17T02:14:09.673Z,1003.99
2022-09-17T02:14:50.134Z,1003.98
2022-09-17T02:15:30.595Z,1003.98
2022-09-17T02:16:11.126Z,1003.98
2022-09-17T02:16:51.548Z,1003.93
2022-09-17T02:17:31.996Z,1003.94
2022-09-17T02:18:12.640Z,1003.95
2022-09-17T02:18:52.994Z,1003.97
2022-09-17T02:19:33.476Z,1003.95
2022-09-17T02:20:13.965Z,1004.03
2022-09-17T02:20:54.448Z,1004
2022-09-17T02:21:34.928Z,1003.96
2022-09-17T02:22:15.429Z,1003.97
2022-09-17T02:22:55.891Z,1003.96
2022-09-17T02:23:36.387Z,1003.96
2022-09-17T02:24:16.944Z,1004.03
2022-09-17T02:24:57.386Z,1004.02
2022-09-17T02:25:37.833Z,1004.05
2022-09-17T02:26:18.287Z,1004.04
2022-09-17T02:26:58.771Z,1004.08
2022-09-17T02:27:39.223Z,1004
2022-09-17T02:28:19.698Z,1003.98
2022-09-17T02:29:00.230Z,1003.99
2022-09-17T02:29:40.779Z,1003.98
2022-09-17T02:30:21.265Z,1004.01
2022-09-17T02:31:01.861Z,1004.05
2022-09-17T02:31:42.396Z,1004.01
2022-09-17T02:32:22.861Z,1004.04
2022-09-17T02:33:03.277Z,1003.92
2022-09-17T02:33:43.920Z,1004.01
2022-09-17T02:34:24.939Z,1003.97
2022-09-17T02:35:05.454Z,1004.03
2022-09-17T02:35:46.006Z,1004.04
2022-09-17T02:36:26.430Z,1003.98
2022-09-17T02:37:06.907Z,1003.98
2022-09-17T02:37:47.390Z,1003.96
2022-09-17T02:38:27.863Z,1003.97
2022-09-17T02:39:48.875Z,1004.05
2022-09-17T02:40:29.320Z,1004
2022-09-17T02:41:09.771Z,1004
2022-09-17T02:42:30.703Z,1004.03
2022-09-17T02:43:11.165Z,1004.05
2022-09-17T02:43:51.824Z,1004.02
2022-09-17T02:44:32.253Z,1004.04
2022-09-17T02:45:12.730Z,1004.02
2022-09-17T02:45:53.164Z,1004.03
2022-09-17T02:46:33.735Z,1003.99
2022-09-17T02:47:14.238Z,1004
2022-09-17T02:47:54.710Z,1004.03
2022-09-17T02:48:35.178Z,1004.03
2022-09-17T02:49:15.753Z,1004.07
2022-09-17T02:49:56.095Z,1004.11
2022-09-17T02:50:36.581Z,1003.99
2022-09-17T02:51:17.056Z,1004.11
2022-09-17T02:51:57.529Z,1004.09
2022-09-17T02:52:38.003Z,1004.12
2022-09-17T02:55:36.636Z,1004.12
2022-09-17T02:56:17.150Z,1004.02
2022-09-17T02:56:57.583Z,1004.08
2022-09-17T02:57:38.123Z,1004.08
2022-09-17T02:58:18.593Z,1004.03
2022-09-17T02:58:59.051Z,1004.05
2022-09-17T02:59:39.532Z,1004.02
2022-09-17T03:00:20.006Z,1004.02
2022-09-17T03:01:00.555Z,1003.99
2022-09-17T03:01:41.040Z,1003.99
2022-09-17T03:02:21.507Z,1003.96
2022-09-17T03:03:01.965Z,1003.99
2022-09-17T03:03:42.442Z,1003.96
2022-09-17T03:04:23.065Z,1003.98
2022-09-17T03:05:03.412Z,1003.97
2022-09-17T03:05:43.888Z,1003.93
2022-09-17T03:06:24.395Z,1003.99
2022-09-17T03:07:04.906Z,1003.98
2022-09-17T03:07:45.447Z,1003.99
2022-09-17T03:08:25.994Z,1004.03
2022-09-17T03:09:06.464Z,1003.97
2022-09-17T03:09:47.642Z,1004.03
2022-09-17T03:10:27.409Z,1004.04
2022-09-17T03:11:07.871Z,1004.06
2022-09-17T03:11:48.349Z,1004.02
2022-09-17T03:12:28.794Z,1004.02
2022-09-17T03:13:09.249Z,1004.02
2022-09-17T03:13:49.710Z,1004.08
2022-09-17T03:14:30.181Z,1004.06
2022-09-17T03:15:51.208Z,1004.07
2022-09-17T03:16:31.658Z,1004.03
2022-09-17T03:17:12.074Z,1004.07
2022-09-17T03:17:53.451Z,1004.03
2022-09-17T03:18:33.035Z,1004
2022-09-17T03:19:13.562Z,1004.08
2022-09-17T03:19:54.134Z,1003.97
2022-09-17T03:20:34.573Z,1004.09
2022-09-17T03:21:15.032Z,1004.05
2022-09-17T03:21:55.511Z,1004.04
2022-09-17T03:22:35.982Z,1004.06
2022-09-17T03:23:16.452Z,1004.13
2022-09-17T03:23:56.953Z,1004.1
2022-09-17T03:24:39.957Z,1004.18
2022-09-17T03:26:00.917Z,1004.13
2022-09-17T03:26:41.455Z,1004.2
2022-09-17T03:27:21.869Z,1004.1
2022-09-17T03:28:02.348Z,1004.16
2022-09-17T03:28:42.871Z,1004.12
2022-09-17T03:29:23.365Z,1004.15
2022-09-17T03:30:03.866Z,1004.12
2022-09-17T03:30:44.402Z,1004.17
2022-09-17T03:31:24.890Z,1004.17
2022-09-17T03:32:05.337Z,1004.18
2022-09-17T03:32:45.856Z,1004.15
2022-09-17T03:33:26.327Z,1004.18
2022-09-17T03:34:06.840Z,1004.22
2022-09-17T03:34:47.324Z,1004.2
2022-09-17T03:35:27.920Z,1004.17
2022-09-17T03:36:22.857Z,1004.18
2022-09-17T03:37:09.955Z,1004.16
2022-09-17T03:37:50.459Z,1004.17
2022-09-17T03:38:30.932Z,1004.17
2022-09-17T03:39:11.496Z,1004.15
2022-09-17T03:39:51.949Z,1004.12
2022-09-17T03:40:32.397Z,1004.16
2022-09-17T03:41:12.830Z,1004.13
2022-09-17T03:41:53.328Z,1004.17
2022-09-17T03:42:33.837Z,1004.15
2022-09-17T03:43:15.048Z,1004.15
2022-09-17T03:43:55.503Z,1004.2
2022-09-17T03:44:35.968Z,1004.22
2022-09-17T03:45:16.464Z,1004.23
2022-09-17T03:45:56.948Z,1004.24
2022-09-17T03:46:37.480Z,1004.21
2022-09-17T03:47:17.887Z,1004.19
2022-09-17T03:47:58.401Z,1004.2
2022-09-17T03:48:38.829Z,1004.23
2022-09-17T03:49:19.302Z,1004.22
2022-09-17T03:52:34.296Z,1004.19
2022-09-17T03:53:14.549Z,1004.24
2022-09-17T03:53:55.060Z,1004.19
2022-09-17T03:54:35.527Z,1004.25
2022-09-17T03:55:16.113Z,1004.23
2022-09-17T03:57:34.014Z,1004.23
2022-09-17T03:58:14.715Z,1004.25
2022-09-17T03:58:55.086Z,1004.23
2022-09-17T03:59:35.576Z,1004.22
2022-09-17T04:00:16.050Z,1004.24
2022-09-17T04:00:56.547Z,1004.24
2022-09-17T04:01:37.080Z,1004.22
2022-09-17T04:02:17.574Z,1004.26
2022-09-17T04:02:57.970Z,1004.23
2022-09-17T04:03:38.417Z,1004.19
2022-09-17T04:04:18.889Z,1004.29
2022-09-17T04:04:59.444Z,1004.28
2022-09-17T04:05:39.957Z,1004.25
2022-09-17T04:06:20.452Z,1004.28
2022-09-17T04:07:00.909Z,1004.28
2022-09-17T04:07:41.536Z,1004.27
2022-09-17T04:08:21.855Z,1004.28
2022-09-17T04:09:02.296Z,1004.33
2022-09-17T04:09:42.801Z,1004.33
2022-09-17T04:10:23.261Z,1004.31
2022-09-17T04:11:03.721Z,1004.34
2022-09-17T04:11:44.245Z,1004.32
2022-09-17T04:12:24.696Z,1004.39
2022-09-17T04:13:05.161Z,1004.38
2022-09-17T04:13:45.636Z,1004.34
2022-09-17T04:14:26.094Z,1004.31
2022-09-17T04:15:06.666Z,1004.29
2022-09-17T04:15:47.274Z,1004.31
2022-09-17T04:16:27.720Z,1004.19
2022-09-17T04:17:08.079Z,1004.25
2022-09-17T04:18:29.026Z,1004.27
2022-09-17T04:19:09.489Z,1004.34
2022-09-17T04:19:49.966Z,1004.3
2022-09-17T04:20:30.439Z,1004.33
2022-09-17T04:21:10.951Z,1004.33
2022-09-17T04:21:51.392Z,1004.34
2022-09-17T04:22:31.961Z,1004.35
2022-09-17T04:23:12.555Z,1004.32
2022-09-17T04:23:52.877Z,1004.33
2022-09-17T04:24:33.362Z,1004.38
2022-09-17T04:25:13.879Z,1004.35
2022-09-17T04:25:54.336Z,1004.36
2022-09-17T04:26:34.855Z,1004.32
2022-09-17T04:27:15.319Z,1004.34
2022-09-17T04:28:36.306Z,1004.35
2022-09-17T04:29:16.817Z,1004.34
2022-09-17T04:29:57.296Z,1004.34
2022-09-17T04:30:37.770Z,1004.31
2022-09-17T04:31:18.330Z,1004.36
2022-09-17T04:31:58.725Z,1004.36
2022-09-17T04:32:39.218Z,1004.36
2022-09-17T04:33:19.706Z,1004.32
2022-09-17T04:34:00.225Z,1004.33
2022-09-17T04:34:40.613Z,1004.37
2022-09-17T04:35:21.093Z,1004.38
2022-09-17T04:36:01.564Z,1004.41
2022-09-17T04:36:42.097Z,1004.44
2022-09-17T04:37:22.540Z,1004.39
2022-09-17T04:38:02.997Z,1004.44
2022-09-17T04:38:43.575Z,1004.45
2022-09-17T04:39:23.974Z,1004.39
2022-09-17T04:40:07.638Z,1004.41
2022-09-17T04:40:44.849Z,1004.38
2022-09-17T04:41:25.372Z,1004.37
2022-09-17T04:42:05.801Z,1004.41
2022-09-17T04:42:46.319Z,1004.42
2022-09-17T04:43:26.750Z,1004.38
2022-09-17T04:44:07.246Z,1004.38
2022-09-17T04:44:47.787Z,1004.39
2022-09-17T04:45:28.309Z,1004.41
2022-09-17T04:46:08.840Z,1004.45
2022-09-17T04:46:49.303Z,1004.43
2022-09-17T04:47:29.776Z,1004.44
2022-09-17T04:48:10.266Z,1004.42
2022-09-17T04:48:50.772Z,1004.39
2022-09-17T04:49:31.242Z,1004.35
2022-09-17T04:50:11.784Z,1004.38
2022-09-17T04:50:52.235Z,1004.41
2022-09-17T04:51:32.718Z,1004.44
2022-09-17T04:52:13.249Z,1004.44
2022-09-17T04:52:53.711Z,1004.45
2022-09-17T04:53:34.797Z,1004.43
2022-09-17T04:54:15.428Z,1004.47
2022-09-17T04:54:55.731Z,1004.46
2022-09-17T04:55:36.195Z,1004.41
2022-09-17T04:56:16.642Z,1004.44
2022-09-17T04:56:57.148Z,1004.47
2022-09-17T04:57:37.660Z,1004.44
2022-09-17T04:58:18.498Z,1004.46
2022-09-17T04:58:58.839Z,1004.53
2022-09-17T04:59:39.329Z,1004.46
2022-09-17T05:00:19.831Z,1004.54
2022-09-17T05:01:00.397Z,1004.55
2022-09-17T05:01:40.771Z,1004.53
2022-09-17T05:02:21.329Z,1004.49
2022-09-17T05:03:01.690Z,1004.46
2022-09-17T05:07:34.199Z,1004.53
2022-09-17T05:08:14.642Z,1004.53
2022-09-17T05:08:55.037Z,1004.51
2022-09-17T05:09:35.700Z,1004.55
2022-09-17T05:10:16.109Z,1004.6
2022-09-17T05:10:56.576Z,1004.5
2022-09-17T05:11:37.033Z,1004.51
2022-09-17T05:12:17.531Z,1004.52
2022-09-17T05:12:57.993Z,1004.55
2022-09-17T05:13:38.416Z,1004.54
2022-09-17T05:14:19.026Z,1004.57
2022-09-17T05:14:59.413Z,1004.49
2022-09-17T05:15:40.185Z,1004.57
2022-09-17T05:16:20.542Z,1004.57
2022-09-17T05:17:00.941Z,1004.58
2022-09-17T05:17:41.443Z,1004.57
2022-09-17T05:18:22.023Z,1004.56
2022-09-17T05:19:02.531Z,1004.6
2022-09-17T05:19:43.022Z,1004.57
2022-09-17T05:20:23.510Z,1004.61
2022-09-17T05:21:04.048Z,1004.6
2022-09-17T05:21:44.601Z,1004.6
2022-09-17T05:22:25.072Z,1004.56
2022-09-17T05:23:05.564Z,1004.56
2022-09-17T05:23:46.074Z,1004.61
2022-09-17T05:24:26.600Z,1004.54
2022-09-17T05:25:07.193Z,1004.55
2022-09-17T05:26:28.113Z,1004.53
2022-09-17T05:27:08.579Z,1004.57
2022-09-17T05:27:49.100Z,1004.59
2022-09-17T05:28:29.581Z,1004.59
2022-09-17T05:29:10.050Z,1004.56
2022-09-17T05:29:50.644Z,1004.59
2022-09-17T05:30:31.066Z,1004.63
2022-09-17T05:31:11.590Z,1004.57
2022-09-17T05:31:52.024Z,1004.59
2022-09-17T05:33:49.686Z,1004.61
2022-09-17T05:34:30.237Z,1004.66
2022-09-17T05:35:10.645Z,1004.65
2022-09-17T05:35:51.149Z,1004.66
2022-09-17T05:36:31.649Z,1004.64
2022-09-17T05:39:45.358Z,1004.61
2022-09-17T05:40:26.020Z,1004.63
2022-09-17T05:41:06.326Z,1004.59
2022-09-17T05:41:46.784Z,1004.64
2022-09-17T05:42:27.270Z,1004.69
2022-09-17T05:43:48.221Z,1004.69
2022-09-17T05:44:28.769Z,1004.68
2022-09-17T05:45:09.276Z,1004.75
2022-09-17T05:45:49.756Z,1004.74
2022-09-17T05:46:30.287Z,1004.74
2022-09-17T05:47:10.717Z,1004.71
2022-09-17T05:47:51.197Z,1004.75
2022-09-17T05:48:31.657Z,1004.72
2022-09-17T05:49:12.135Z,1004.71
2022-09-17T05:49:52.618Z,1004.66
2022-09-17T05:50:33.097Z,1004.78
2022-09-17T05:51:13.577Z,1004.76
2022-09-17T05:51:54.074Z,1004.82
2022-09-17T05:52:34.536Z,1004.85
2022-09-17T06:32:01.401Z,1005.01
2022-09-17T06:32:42.024Z,1004.96
2022-09-17T06:33:22.299Z,1004.98
2022-09-17T06:34:02.699Z,1004.99
2022-09-17T06:34:43.154Z,1005
2022-09-17T06:35:23.642Z,1005.01
2022-09-17T06:36:04.183Z,1005.03
2022-09-17T06:36:44.656Z,1004.98
2022-09-17T06:37:25.133Z,1005.03
2022-09-17T06:38:05.584Z,1005.06
2022-09-17T06:38:46.236Z,1005.01
2022-09-17T06:39:26.696Z,1005.08
2022-09-17T06:40:07.236Z,1005.07
2022-09-17T06:40:47.699Z,1005.03
2022-09-17T06:41:28.212Z,1005.09
2022-09-17T06:42:08.650Z,1005.1
2022-09-17T06:42:49.124Z,1005.07
2022-09-17T06:43:29.624Z,1005.1
2022-09-17T06:44:10.123Z,1005.12
2022-09-17T06:44:50.597Z,1004.99
2022-09-17T06:45:31.089Z,1005.13
2022-09-17T06:46:11.631Z,1005.1
2022-09-17T06:46:52.071Z,1005.13
2022-09-17T06:47:32.668Z,1005.15
2022-09-17T06:48:13.046Z,1005.13
2022-09-17T06:48:53.679Z,1005.12
2022-09-17T06:49:34.203Z,1005.17
2022-09-17T06:50:14.683Z,1005.2
2022-09-17T06:50:55.190Z,1005.23
2022-09-17T06:51:35.781Z,1005.21
2022-09-17T06:52:16.231Z,1005.26
2022-09-17T06:52:56.704Z,1005.26
2022-09-17T06:53:37.183Z,1005.25
2022-09-17T06:54:17.690Z,1005.23
2022-09-17T06:54:58.170Z,1005.28
2022-09-17T06:55:38.650Z,1005.28
2022-09-17T06:56:19.198Z,1005.33
2022-09-17T06:56:59.659Z,1005.27
2022-09-17T06:57:40.131Z,1005.35
2022-09-17T06:58:20.633Z,1005.33
2022-09-17T06:59:01.197Z,1005.34
2022-09-17T06:59:41.631Z,1005.23
2022-09-17T07:00:22.129Z,1005.29
2022-09-17T07:01:02.759Z,1005.37
2022-09-17T07:01:43.150Z,1005.33
2022-09-17T07:02:23.685Z,1005.35
2022-09-17T07:03:04.220Z,1005.38
2022-09-17T07:03:44.623Z,1005.26
2022-09-17T07:04:25.123Z,1005.35
2022-09-17T07:05:05.627Z,1005.35
2022-09-17T07:05:46.127Z,1005.34
2022-09-17T07:06:26.532Z,1005.29
2022-09-17T07:07:07.016Z,1005.27
2022-09-17T07:07:47.521Z,1005.28
2022-09-17T07:08:28.022Z,1005.32
2022-09-17T07:09:10.971Z,1005.24
2022-09-17T07:09:49.032Z,1005.25
2022-09-17T07:10:29.539Z,1005.19
2022-09-17T07:11:10.028Z,1005.22
2022-09-17T07:11:50.533Z,1005.17
2022-09-17T07:12:31.117Z,1005.24
2022-09-17T07:13:11.565Z,1005.28
2022-09-17T07:13:52.175Z,1005.26
2022-09-17T07:14:32.585Z,1005.19
2022-09-17T07:15:13.054Z,1005.27
2022-09-17T07:15:53.609Z,1005.2
2022-09-17T07:16:34.161Z,1005.24
2022-09-17T07:17:14.576Z,1005.22
2022-09-17T07:17:55.080Z,1005.28
2022-09-17T07:18:35.721Z,1005.12
2022-09-17T07:19:16.098Z,1005.22
2022-09-17T07:19:56.578Z,1005.29
2022-09-17T07:20:37.099Z,1005.28
2022-09-17T07:21:17.574Z,1005.25
2022-09-17T07:21:58.227Z,1005.3
2022-09-17T07:22:38.701Z,1005.24
2022-09-17T07:23:19.192Z,1005.27
2022-09-17T07:23:59.727Z,1005.29
2022-09-17T07:24:40.223Z,1005.32
2022-09-17T07:25:20.737Z,1005.32
2022-09-17T07:26:01.251Z,1005.27
2022-09-17T07:26:41.751Z,1005.31
2022-09-17T07:27:22.249Z,1005.31
2022-09-17T07:28:02.725Z,1005.34
2022-09-17T07:28:43.215Z,1005.3
2022-09-17T07:29:23.738Z,1005.4
2022-09-17T07:30:04.258Z,1005.39
2022-09-17T07:30:44.729Z,1005.38
2022-09-17T07:31:25.320Z,1005.38
2022-09-17T07:32:05.726Z,1005.37
2022-09-17T07:32:46.245Z,1005.41
2022-09-17T07:33:26.798Z,1005.43
2022-09-17T07:34:07.418Z,1005.43
2022-09-17T07:34:47.824Z,1005.42
2022-09-17T07:35:28.275Z,1005.44
2022-09-17T07:36:08.779Z,1005.31
2022-09-17T07:36:49.271Z,1005.35
2022-09-17T07:37:29.790Z,1005.37
2022-09-17T07:38:10.299Z,1005.35
2022-09-17T07:38:50.799Z,1005.4
2022-09-17T07:39:31.273Z,1005.39
2022-09-17T07:40:11.879Z,1005.38
2022-09-17T07:40:52.271Z,1005.37
2022-09-17T07:41:32.704Z,1005.33
2022-09-17T07:42:13.794Z,1005.31
2022-09-17T07:42:54.359Z,1005.32
2022-09-17T07:43:34.785Z,1005.32
2022-09-17T07:44:15.306Z,1005.3
2022-09-17T07:44:59.875Z,1005.24
2022-09-17T07:45:36.284Z,1005.25
2022-09-17T07:46:16.866Z,1005.31
2022-09-17T07:46:57.319Z,1005.24
2022-09-17T07:47:37.821Z,1005.29
2022-09-17T07:48:18.304Z,1005.3
2022-09-17T07:48:58.803Z,1005.29
2022-09-17T07:49:39.409Z,1005.33
2022-09-17T07:50:19.813Z,1005.25
2022-09-17T07:51:00.341Z,1005.26
2022-09-17T07:51:40.977Z,1005.31
2022-09-17T07:52:21.569Z,1005.32
2022-09-17T07:53:02.117Z,1005.34
2022-09-17T07:53:42.613Z,1005.33
2022-09-17T07:54:23.186Z,1005.36
2022-09-17T07:55:03.590Z,1005.39
2022-09-17T07:55:44.082Z,1005.41
2022-09-17T07:56:24.563Z,1005.37
2022-09-17T07:57:05.054Z,1005.43
2022-09-17T07:57:45.586Z,1005.4
2022-09-17T07:58:26.058Z,1005.4
2022-09-17T07:59:06.572Z,1005.39
2022-09-17T07:59:47.094Z,1005.39
2022-09-17T08:00:27.557Z,1005.41
2022-09-17T08:01:08.427Z,1005.43
2022-09-17T08:01:49.046Z,1005.38
2022-09-17T08:02:29.515Z,1005.43
2022-09-17T08:03:10.122Z,1005.39
2022-09-17T08:03:50.598Z,1005.44
2022-09-17T08:04:31.056Z,1005.46
2022-09-17T08:05:11.644Z,1005.43
2022-09-17T08:05:52.034Z,1005.42
2022-09-17T08:06:32.603Z,1005.44
2022-09-17T08:07:13.068Z,1005.5
2022-09-17T08:07:53.617Z,1005.45
2022-09-17T08:08:34.094Z,1005.51
2022-09-17T08:09:14.584Z,1005.4
2022-09-17T08:09:55.080Z,1005.42
2022-09-17T08:10:36.510Z,1005.48
2022-09-17T08:11:20.604Z,1005.51
2022-09-17T08:11:57.032Z,1005.5
2022-09-17T08:12:37.245Z,1005.44
2022-09-17T08:13:17.812Z,1005.47
2022-09-17T08:13:58.287Z,1005.52
2022-09-17T08:14:38.745Z,1005.38
2022-09-17T08:15:19.298Z,1005.52
2022-09-17T08:16:01.687Z,1005.44
2022-09-17T08:16:42.191Z,1005.5
2022-09-17T08:17:22.698Z,1005.51
2022-09-17T08:18:03.216Z,1005.45
2022-09-17T08:18:43.739Z,1005.47
2022-09-17T08:19:24.281Z,1005.5
2022-09-17T08:20:04.712Z,1005.46
2022-09-17T08:20:45.385Z,1005.48
2022-09-17T08:21:25.739Z,1005.46
2022-09-17T08:22:50.235Z,1005.47
2022-09-17T08:23:29.733Z,1005.49
2022-09-17T08:24:10.248Z,1005.53
2022-09-17T08:24:51.153Z,1005.42
2022-09-17T08:25:31.679Z,1005.45
2022-09-17T08:26:12.147Z,1005.34
2022-09-17T08:26:52.785Z,1005.46
2022-09-17T08:27:34.772Z,1005.45
2022-09-17T08:28:13.988Z,1005.45
2022-09-17T08:28:54.441Z,1005.42
2022-09-17T08:29:35.427Z,1005.55
2022-09-17T08:30:15.585Z,1005.45
2022-09-17T08:30:56.182Z,1005.48
2022-09-17T08:31:36.796Z,1005.45
2022-09-17T08:32:17.173Z,1005.44
2022-09-17T08:32:57.636Z,1005.4
2022-09-17T08:33:38.154Z,1005.43
2022-09-17T08:36:37.135Z,1005.42
2022-09-17T08:37:17.742Z,1005.48
2022-09-17T08:37:58.065Z,1005.47
2022-09-17T08:38:38.637Z,1005.46
2022-09-17T08:42:07.565Z,1005.52
2022-09-17T08:42:48.762Z,1005.52
2022-09-17T08:43:29.478Z,1005.55
2022-09-17T08:44:09.979Z,1005.53
2022-09-17T08:44:52.150Z,1005.53
2022-09-17T08:45:31.529Z,1005.57
2022-09-17T08:46:12.108Z,1005.52
2022-09-17T08:46:52.737Z,1005.63
2022-09-17T08:47:33.386Z,1005.56
2022-09-17T08:48:15.230Z,1005.62
2022-09-17T08:48:55.706Z,1005.68
2022-09-17T08:49:36.465Z,1005.7
2022-09-17T08:50:16.768Z,1005.58
2022-09-17T08:51:01.734Z,1005.62
2022-09-17T08:51:37.735Z,1005.52
2022-09-17T08:52:18.378Z,1005.5
2022-09-17T08:52:58.719Z,1005.48
2022-09-17T08:53:39.211Z,1005.65
2022-09-17T08:54:19.728Z,1005.49
2022-09-17T08:55:00.279Z,1005.6
2022-09-17T08:55:40.881Z,1005.58
2022-09-17T08:56:22.489Z,1005.6
2022-09-17T08:57:02.952Z,1005.52
2022-09-17T08:57:43.451Z,1005.63
2022-09-17T08:58:23.973Z,1005.59
2022-09-17T08:59:04.502Z,1005.58
2022-09-17T08:59:45.002Z,1005.6
2022-09-17T09:00:25.490Z,1005.57
2022-09-17T09:01:06.016Z,1005.55
2022-09-17T09:01:46.639Z,1005.6
2022-09-17T09:02:27.018Z,1005.65
2022-09-17T09:03:07.441Z,1005.65
2022-09-17T09:03:47.938Z,1005.67
2022-09-17T09:04:28.521Z,1005.7
2022-09-17T09:05:09.850Z,1005.66
2022-09-17T09:05:50.708Z,1005.7
2022-09-17T09:06:31.135Z,1005.72
2022-09-17T09:07:11.628Z,1005.65
2022-09-17T09:07:52.303Z,1005.55
2022-09-17T09:08:32.992Z,1005.7
2022-09-17T09:09:13.458Z,1005.65
2022-09-17T09:09:54.103Z,1005.64
2022-09-17T09:10:34.612Z,1005.62
2022-09-17T09:11:15.186Z,1005.59
2022-09-17T09:11:55.622Z,1005.55
2022-09-17T09:12:36.114Z,1005.6
2022-09-17T09:13:16.583Z,1005.57
2022-09-17T09:13:57.101Z,1005.55
2022-09-17T09:14:37.611Z,1005.68
2022-09-17T09:15:18.180Z,1005.62
2022-09-17T09:15:58.680Z,1005.62
2022-09-17T09:17:20.719Z,1005.55
2022-09-17T09:18:01.230Z,1005.59
2022-09-17T09:18:41.687Z,1005.58
2022-09-17T09:19:22.183Z,1005.66
2022-09-17T09:20:02.682Z,1005.59
2022-09-17T09:20:43.156Z,1005.57
2022-09-17T09:21:23.680Z,1005.57
2022-09-17T09:22:04.211Z,1005.57
2022-09-17T09:22:44.672Z,1005.57
2022-09-17T09:23:25.285Z,1005.58
2022-09-17T09:24:05.781Z,1005.6
2022-09-17T09:24:46.138Z,1005.6
2022-09-17T09:25:26.618Z,1005.56
2022-09-17T09:26:07.593Z,1005.57
2022-09-17T09:26:48.084Z,1005.53
2022-09-17T09:27:28.633Z,1005.48
2022-09-17T09:28:09.066Z,1005.53
2022-09-17T09:28:49.569Z,1005.54
2022-09-17T09:29:30.086Z,1005.55
2022-09-17T09:30:10.529Z,1005.5
2022-09-17T09:30:51.041Z,1005.48
2022-09-17T09:31:31.578Z,1005.46
2022-09-17T09:32:16.131Z,1005.54
2022-09-17T09:32:52.533Z,1005.63
2022-09-17T09:33:33.093Z,1005.58
2022-09-17T09:34:13.624Z,1005.57
2022-09-17T09:34:54.144Z,1005.55
2022-09-17T09:35:34.622Z,1005.71
2022-09-17T09:36:15.270Z,1005.57
2022-09-17T09:39:16.434Z,1005.61
2022-09-17T09:41:17.294Z,1005.52
2022-09-17T09:41:58.059Z,1005.54
2022-09-17T09:42:38.391Z,1005.57
2022-09-17T09:43:18.824Z,1005.55
2022-09-17T09:44:03.929Z,1005.57
2022-09-17T09:44:39.825Z,1005.53
2022-09-17T09:45:20.362Z,1005.58
2022-09-17T09:46:00.880Z,1005.51
2022-09-17T09:49:14.937Z,1005.53
2022-09-17T09:49:55.437Z,1005.51
2022-09-17T09:50:55.013Z,1005.57
2022-09-17T09:51:16.499Z,1005.57
2022-09-17T09:51:58.555Z,1005.55
2022-09-17T09:52:39.049Z,1005.56
2022-09-17T09:53:19.601Z,1005.53
2022-09-17T09:54:00.669Z,1005.56
2022-09-17T09:54:41.320Z,1005.57
2022-09-17T09:55:25.913Z,1005.53
2022-09-17T09:56:02.308Z,1005.55
2022-09-17T09:56:42.871Z,1005.52
2022-09-17T09:57:23.806Z,1005.37
2022-09-17T10:00:22.962Z,1005.46
2022-09-17T10:01:03.400Z,1005.44